This is the latest recevied weather packets stored in our database for station/object OK9AIR. If no packets are shown the sender has not sent any weather packets the latest 10 day(s).
| Time | Temp. | Humidity | Pressure | Rain* | Wind** | Luminosity | Snow |
|---|---|---|---|---|---|---|---|
| 1778262664 | 11.67° C | 87% | 973 hPa | - | - | - | - |
| 1778262601 | 11.11° C | 88% | 972.9 hPa | - | - | - | - |
| 1778261701 | 11.67° C | 82% | 973 hPa | - | - | - | - |
| 1778261638 | 11.67° C | 82% | 973 hPa | - | - | - | - |
| 1778260737 | 12.22° C | 78% | 972.9 hPa | - | - | - | - |
| 1778259776 | 12.78° C | 75% | 972.8 hPa | - | - | - | - |
| 1778259121 | 13.33° C | 70% | 972.8 hPa | - | - | - | - |
| 1778258934 | 12.78° C | 71% | 972.8 hPa | - | - | - | - |
| 1778256708 | 13.89° C | 66% | 972.8 hPa | - | - | - | - |
| 1778256402 | 13.89° C | 67% | 972.9 hPa | - | - | - | - |
| 1778256340 | 13.33° C | 68% | 972.8 hPa | - | - | - | - |
| 1778256291 | 13.89° C | 68% | 972.8 hPa | - | - | - | - |
| 1778255514 | 13.33° C | 70% | 972.9 hPa | - | - | - | - |
| 1778254968 | 13.33° C | 70% | 972.8 hPa | - | - | - | - |
| 1778254905 | 13.33° C | 71% | 972.9 hPa | - | - | - | - |
| 1778254006 | 13.89° C | 70% | 972.9 hPa | - | - | - | - |
| 1778253943 | 13.33° C | 71% | 972.9 hPa | - | - | - | - |
| 1778252897 | 14.44° C | 67% | 972.8 hPa | - | - | - | - |
| 1778252647 | 14.44° C | 66% | 972.9 hPa | - | - | - | - |
| 1778252571 | 15° C | 65% | 972.9 hPa | - | - | - | - |
* Rain since midnight (hover to see other rain measurements)
** Current wind speed in m/s (hover to see current wind gust speed)